sensor_id;sensor_type;location;lat;lon;timestamp;P1;durP1;ratioP1;P2;durP2;ratioP2
70303;SDS011;57712;48.752;11.348;2023-09-18T00:00:31;10.80;;;7.65;;
70303;SDS011;57712;48.752;11.348;2023-09-18T00:03:01;9.77;;;6.77;;
70303;SDS011;57712;48.752;11.348;2023-09-18T00:05:30;9.93;;;6.70;;
70303;SDS011;57712;48.752;11.348;2023-09-18T00:07:57;9.80;;;7.35;;
70303;SDS011;57712;48.752;11.348;2023-09-18T00:10:25;9.93;;;6.88;;
70303;SDS011;57712;48.752;11.348;2023-09-18T00:12:52;10.25;;;7.47;;
70303;SDS011;57712;48.752;11.348;2023-09-18T00:15:19;10.40;;;6.77;;
70303;SDS011;57712;48.752;11.348;2023-09-18T00:17:45;9.25;;;6.75;;
70303;SDS011;57712;48.752;11.348;2023-09-18T00:20:12;9.02;;;6.60;;
70303;SDS011;57712;48.752;11.348;2023-09-18T00:22:40;10.43;;;6.78;;
70303;SDS011;57712;48.752;11.348;2023-09-18T00:25:06;9.15;;;6.40;;
70303;SDS011;57712;48.752;11.348;2023-09-18T00:27:33;9.83;;;6.67;;
70303;SDS011;57712;48.752;11.348;2023-09-18T00:30:05;9.35;;;6.65;;
70303;SDS011;57712;48.752;11.348;2023-09-18T00:32:32;10.02;;;6.82;;
70303;SDS011;57712;48.752;11.348;2023-09-18T00:34:59;10.38;;;7.00;;
70303;SDS011;57712;48.752;11.348;2023-09-18T00:37:26;9.93;;;6.57;;
70303;SDS011;57712;48.752;11.348;2023-09-18T00:39:52;10.17;;;6.77;;
70303;SDS011;57712;48.752;11.348;2023-09-18T00:42:19;9.20;;;6.43;;
70303;SDS011;57712;48.752;11.348;2023-09-18T00:44:48;9.77;;;6.35;;
70303;SDS011;57712;48.752;11.348;2023-09-18T00:47:15;8.93;;;6.40;;
70303;SDS011;57712;48.752;11.348;2023-09-18T00:49:43;11.65;;;6.35;;
70303;SDS011;57712;48.752;11.348;2023-09-18T00:52:12;9.67;;;6.83;;
70303;SDS011;57712;48.752;11.348;2023-09-18T00:54:40;9.52;;;6.43;;
70303;SDS011;57712;48.752;11.348;2023-09-18T00:57:09;11.00;;;6.80;;
70303;SDS011;57712;48.752;11.348;2023-09-18T00:59:37;10.23;;;6.80;;
70303;SDS011;57712;48.752;11.348;2023-09-18T01:02:04;10.18;;;6.65;;
70303;SDS011;57712;48.752;11.348;2023-09-18T01:04:32;11.47;;;6.87;;
70303;SDS011;57712;48.752;11.348;2023-09-18T01:07:00;9.40;;;6.25;;
70303;SDS011;57712;48.752;11.348;2023-09-18T01:09:33;12.32;;;6.22;;
70303;SDS011;57712;48.752;11.348;2023-09-18T01:17:35;9.00;;;5.73;;
70303;SDS011;57712;48.752;11.348;2023-09-18T01:20:05;10.90;;;7.00;;
70303;SDS011;57712;48.752;11.348;2023-09-18T01:22:32;9.63;;;6.68;;
70303;SDS011;57712;48.752;11.348;2023-09-18T01:24:59;10.02;;;6.68;;
70303;SDS011;57712;48.752;11.348;2023-09-18T01:27:25;9.38;;;6.03;;
70303;SDS011;57712;48.752;11.348;2023-09-18T01:29:52;10.83;;;6.83;;
70303;SDS011;57712;48.752;11.348;2023-09-18T01:32:19;9.52;;;6.80;;
70303;SDS011;57712;48.752;11.348;2023-09-18T01:34:51;10.73;;;6.80;;
70303;SDS011;57712;48.752;11.348;2023-09-18T01:37:21;9.18;;;6.53;;
70303;SDS011;57712;48.752;11.348;2023-09-18T01:39:52;10.35;;;6.90;;
70303;SDS011;57712;48.752;11.348;2023-09-18T01:42:20;9.50;;;6.10;;
70303;SDS011;57712;48.752;11.348;2023-09-18T01:44:47;9.93;;;6.55;;
70303;SDS011;57712;48.752;11.348;2023-09-18T01:47:15;10.25;;;6.47;;
70303;SDS011;57712;48.752;11.348;2023-09-18T01:49:44;10.90;;;6.13;;
70303;SDS011;57712;48.752;11.348;2023-09-18T01:52:12;9.50;;;6.50;;
70303;SDS011;57712;48.752;11.348;2023-09-18T01:54:39;9.10;;;6.27;;
70303;SDS011;57712;48.752;11.348;2023-09-18T01:57:06;9.43;;;6.32;;
70303;SDS011;57712;48.752;11.348;2023-09-18T01:59:34;10.05;;;6.30;;
70303;SDS011;57712;48.752;11.348;2023-09-18T02:02:02;9.63;;;5.93;;
70303;SDS011;57712;48.752;11.348;2023-09-18T02:04:33;9.20;;;5.82;;
70303;SDS011;57712;48.752;11.348;2023-09-18T02:07:20;8.70;;;5.50;;
70303;SDS011;57712;48.752;11.348;2023-09-18T02:09:47;9.68;;;6.18;;
70303;SDS011;57712;48.752;11.348;2023-09-18T02:12:14;10.20;;;6.47;;
70303;SDS011;57712;48.752;11.348;2023-09-18T02:14:46;9.73;;;6.13;;
70303;SDS011;57712;48.752;11.348;2023-09-18T02:17:13;9.13;;;6.00;;
70303;SDS011;57712;48.752;11.348;2023-09-18T02:19:40;10.70;;;6.93;;
70303;SDS011;57712;48.752;11.348;2023-09-18T02:22:06;9.95;;;6.43;;
70303;SDS011;57712;48.752;11.348;2023-09-18T02:24:33;10.23;;;6.13;;
70303;SDS011;57712;48.752;11.348;2023-09-18T02:27:00;9.40;;;5.97;;
70303;SDS011;57712;48.752;11.348;2023-09-18T02:29:30;9.65;;;6.53;;
70303;SDS011;57712;48.752;11.348;2023-09-18T02:31:57;10.53;;;6.70;;
70303;SDS011;57712;48.752;11.348;2023-09-18T02:34:24;9.43;;;6.07;;
70303;SDS011;57712;48.752;11.348;2023-09-18T02:36:51;10.23;;;6.70;;
70303;SDS011;57712;48.752;11.348;2023-09-18T02:39:17;9.45;;;6.07;;
70303;SDS011;57712;48.752;11.348;2023-09-18T02:41:44;9.57;;;6.30;;
70303;SDS011;57712;48.752;11.348;2023-09-18T02:44:11;9.30;;;6.60;;
70303;SDS011;57712;48.752;11.348;2023-09-18T02:46:37;9.05;;;6.25;;
70303;SDS011;57712;48.752;11.348;2023-09-18T02:49:04;9.90;;;6.53;;
70303;SDS011;57712;48.752;11.348;2023-09-18T02:51:31;10.25;;;6.63;;
70303;SDS011;57712;48.752;11.348;2023-09-18T02:53:58;9.80;;;6.60;;
70303;SDS011;57712;48.752;11.348;2023-09-18T02:56:24;9.40;;;6.60;;
70303;SDS011;57712;48.752;11.348;2023-09-18T02:58:51;10.02;;;6.65;;
70303;SDS011;57712;48.752;11.348;2023-09-18T03:01:18;9.88;;;6.30;;
70303;SDS011;57712;48.752;11.348;2023-09-18T03:03:45;10.50;;;6.85;;
70303;SDS011;57712;48.752;11.348;2023-09-18T03:06:12;9.63;;;6.68;;
70303;SDS011;57712;48.752;11.348;2023-09-18T03:08:39;10.30;;;6.33;;
70303;SDS011;57712;48.752;11.348;2023-09-18T03:11:13;11.55;;;6.63;;
70303;SDS011;57712;48.752;11.348;2023-09-18T03:13:44;11.30;;;7.68;;
70303;SDS011;57712;48.752;11.348;2023-09-18T03:16:13;11.55;;;7.63;;
70303;SDS011;57712;48.752;11.348;2023-09-18T03:18:40;9.90;;;7.32;;
70303;SDS011;57712;48.752;11.348;2023-09-18T03:21:06;10.93;;;7.30;;
70303;SDS011;57712;48.752;11.348;2023-09-18T03:23:33;10.20;;;6.97;;
70303;SDS011;57712;48.752;11.348;2023-09-18T03:26:00;11.15;;;7.43;;
70303;SDS011;57712;48.752;11.348;2023-09-18T03:28:27;12.60;;;7.68;;
70303;SDS011;57712;48.752;11.348;2023-09-18T03:30:53;10.57;;;6.78;;
70303;SDS011;57712;48.752;11.348;2023-09-18T03:33:21;9.90;;;6.80;;
70303;SDS011;57712;48.752;11.348;2023-09-18T03:35:48;10.68;;;7.18;;
70303;SDS011;57712;48.752;11.348;2023-09-18T03:38:16;10.40;;;7.22;;
70303;SDS011;57712;48.752;11.348;2023-09-18T03:40:43;12.52;;;7.30;;
70303;SDS011;57712;48.752;11.348;2023-09-18T03:43:10;10.25;;;7.55;;
70303;SDS011;57712;48.752;11.348;2023-09-18T03:45:39;9.97;;;7.00;;
70303;SDS011;57712;48.752;11.348;2023-09-18T03:48:09;9.82;;;6.38;;
70303;SDS011;57712;48.752;11.348;2023-09-18T03:50:37;9.55;;;6.78;;
70303;SDS011;57712;48.752;11.348;2023-09-18T03:53:06;11.05;;;6.80;;
70303;SDS011;57712;48.752;11.348;2023-09-18T03:55:33;12.00;;;7.18;;
70303;SDS011;57712;48.752;11.348;2023-09-18T03:58:00;10.63;;;7.30;;
70303;SDS011;57712;48.752;11.348;2023-09-18T04:00:26;11.70;;;7.60;;
70303;SDS011;57712;48.752;11.348;2023-09-18T04:02:53;11.30;;;7.07;;
70303;SDS011;57712;48.752;11.348;2023-09-18T04:05:20;13.05;;;8.00;;
70303;SDS011;57712;48.752;11.348;2023-09-18T04:07:47;9.65;;;7.05;;
70303;SDS011;57712;48.752;11.348;2023-09-18T04:10:14;10.47;;;7.23;;
70303;SDS011;57712;48.752;11.348;2023-09-18T04:12:50;10.85;;;7.07;;
70303;SDS011;57712;48.752;11.348;2023-09-18T04:15:18;10.35;;;7.10;;
70303;SDS011;57712;48.752;11.348;2023-09-18T04:17:46;10.07;;;7.07;;
70303;SDS011;57712;48.752;11.348;2023-09-18T04:20:13;10.35;;;7.03;;
70303;SDS011;57712;48.752;11.348;2023-09-18T04:22:42;10.93;;;6.80;;
70303;SDS011;57712;48.752;11.348;2023-09-18T04:25:16;10.95;;;7.22;;
70303;SDS011;57712;48.752;11.348;2023-09-18T04:27:46;10.05;;;7.32;;
70303;SDS011;57712;48.752;11.348;2023-09-18T04:30:13;12.70;;;8.07;;
70303;SDS011;57712;48.752;11.348;2023-09-18T04:32:40;12.48;;;7.63;;
70303;SDS011;57712;48.752;11.348;2023-09-18T04:35:08;11.10;;;7.20;;
70303;SDS011;57712;48.752;11.348;2023-09-18T04:37:36;12.85;;;8.00;;
70303;SDS011;57712;48.752;11.348;2023-09-18T04:40:07;10.77;;;7.32;;
70303;SDS011;57712;48.752;11.348;2023-09-18T04:42:38;10.32;;;7.35;;
70303;SDS011;57712;48.752;11.348;2023-09-18T04:45:06;11.85;;;7.72;;
70303;SDS011;57712;48.752;11.348;2023-09-18T04:47:34;10.23;;;7.30;;
70303;SDS011;57712;48.752;11.348;2023-09-18T04:50:00;10.77;;;8.02;;
70303;SDS011;57712;48.752;11.348;2023-09-18T04:52:38;11.52;;;7.90;;
70303;SDS011;57712;48.752;11.348;2023-09-18T04:55:07;10.20;;;7.22;;
70303;SDS011;57712;48.752;11.348;2023-09-18T04:57:35;11.55;;;8.30;;
70303;SDS011;57712;48.752;11.348;2023-09-18T05:00:02;13.17;;;7.83;;
70303;SDS011;57712;48.752;11.348;2023-09-18T05:02:42;12.75;;;8.25;;
70303;SDS011;57712;48.752;11.348;2023-09-18T05:05:09;12.88;;;8.02;;
70303;SDS011;57712;48.752;11.348;2023-09-18T05:07:36;12.85;;;7.97;;
70303;SDS011;57712;48.752;11.348;2023-09-18T05:10:03;11.82;;;8.30;;
70303;SDS011;57712;48.752;11.348;2023-09-18T05:12:31;12.53;;;8.33;;
70303;SDS011;57712;48.752;11.348;2023-09-18T05:14:58;15.35;;;8.57;;
70303;SDS011;57712;48.752;11.348;2023-09-18T05:17:38;11.43;;;8.30;;
70303;SDS011;57712;48.752;11.348;2023-09-18T05:20:18;11.18;;;8.00;;
70303;SDS011;57712;48.752;11.348;2023-09-18T05:22:45;11.70;;;7.30;;
70303;SDS011;57712;48.752;11.348;2023-09-18T05:25:12;11.67;;;7.53;;
70303;SDS011;57712;48.752;11.348;2023-09-18T05:27:41;11.98;;;7.57;;
70303;SDS011;57712;48.752;11.348;2023-09-18T05:30:12;12.07;;;7.57;;
70303;SDS011;57712;48.752;11.348;2023-09-18T05:32:48;10.77;;;7.93;;
70303;SDS011;57712;48.752;11.348;2023-09-18T05:35:15;11.88;;;8.23;;
70303;SDS011;57712;48.752;11.348;2023-09-18T05:37:43;12.70;;;8.03;;
70303;SDS011;57712;48.752;11.348;2023-09-18T05:40:11;11.48;;;7.97;;
70303;SDS011;57712;48.752;11.348;2023-09-18T05:42:40;10.70;;;7.80;;
70303;SDS011;57712;48.752;11.348;2023-09-18T05:45:11;11.27;;;7.78;;
70303;SDS011;57712;48.752;11.348;2023-09-18T05:47:38;10.60;;;7.35;;
70303;SDS011;57712;48.752;11.348;2023-09-18T05:50:06;11.17;;;8.20;;
70303;SDS011;57712;48.752;11.348;2023-09-18T05:52:34;11.13;;;8.05;;
70303;SDS011;57712;48.752;11.348;2023-09-18T05:55:04;11.75;;;7.43;;
70303;SDS011;57712;48.752;11.348;2023-09-18T05:57:31;10.48;;;7.38;;
70303;SDS011;57712;48.752;11.348;2023-09-18T05:59:58;13.65;;;7.88;;
70303;SDS011;57712;48.752;11.348;2023-09-18T06:02:25;10.33;;;7.33;;
70303;SDS011;57712;48.752;11.348;2023-09-18T06:04:55;11.55;;;7.30;;
70303;SDS011;57712;48.752;11.348;2023-09-18T06:07:26;10.35;;;7.20;;
70303;SDS011;57712;48.752;11.348;2023-09-18T06:09:53;11.32;;;7.07;;
70303;SDS011;57712;48.752;11.348;2023-09-18T06:12:20;11.30;;;8.40;;
70303;SDS011;57712;48.752;11.348;2023-09-18T06:14:47;12.43;;;8.33;;
70303;SDS011;57712;48.752;11.348;2023-09-18T06:17:15;11.32;;;7.43;;
70303;SDS011;57712;48.752;11.348;2023-09-18T06:19:42;11.05;;;7.00;;
70303;SDS011;57712;48.752;11.348;2023-09-18T06:22:09;11.65;;;7.63;;
70303;SDS011;57712;48.752;11.348;2023-09-18T06:24:36;12.02;;;8.05;;
70303;SDS011;57712;48.752;11.348;2023-09-18T06:27:03;12.23;;;8.47;;
70303;SDS011;57712;48.752;11.348;2023-09-18T06:29:33;11.48;;;8.13;;
70303;SDS011;57712;48.752;11.348;2023-09-18T06:32:01;12.70;;;8.40;;
70303;SDS011;57712;48.752;11.348;2023-09-18T06:34:27;12.32;;;7.70;;
70303;SDS011;57712;48.752;11.348;2023-09-18T06:36:54;12.75;;;8.00;;
70303;SDS011;57712;48.752;11.348;2023-09-18T06:39:21;12.23;;;8.07;;
70303;SDS011;57712;48.752;11.348;2023-09-18T06:41:50;12.93;;;7.97;;
70303;SDS011;57712;48.752;11.348;2023-09-18T06:44:16;12.55;;;8.07;;
70303;SDS011;57712;48.752;11.348;2023-09-18T06:46:43;13.18;;;8.18;;
70303;SDS011;57712;48.752;11.348;2023-09-18T06:49:10;13.63;;;8.63;;
70303;SDS011;57712;48.752;11.348;2023-09-18T06:51:37;11.27;;;8.53;;
70303;SDS011;57712;48.752;11.348;2023-09-18T06:54:09;12.02;;;7.88;;
70303;SDS011;57712;48.752;11.348;2023-09-18T06:56:35;11.57;;;8.13;;
70303;SDS011;57712;48.752;11.348;2023-09-18T06:59:02;11.52;;;8.27;;
70303;SDS011;57712;48.752;11.348;2023-09-18T07:01:29;10.57;;;7.93;;
70303;SDS011;57712;48.752;11.348;2023-09-18T07:03:56;12.50;;;8.00;;
70303;SDS011;57712;48.752;11.348;2023-09-18T07:06:24;12.68;;;7.68;;
70303;SDS011;57712;48.752;11.348;2023-09-18T07:08:50;11.77;;;8.02;;
70303;SDS011;57712;48.752;11.348;2023-09-18T07:11:18;15.13;;;8.68;;
70303;SDS011;57712;48.752;11.348;2023-09-18T07:13:45;10.57;;;7.60;;
70303;SDS011;57712;48.752;11.348;2023-09-18T07:16:12;12.57;;;7.90;;
70303;SDS011;57712;48.752;11.348;2023-09-18T07:18:40;10.52;;;8.13;;
70303;SDS011;57712;48.752;11.348;2023-09-18T07:21:07;12.07;;;7.80;;
70303;SDS011;57712;48.752;11.348;2023-09-18T07:23:34;13.00;;;8.85;;
70303;SDS011;57712;48.752;11.348;2023-09-18T07:26:03;11.40;;;8.40;;
70303;SDS011;57712;48.752;11.348;2023-09-18T07:28:30;13.13;;;8.50;;
70303;SDS011;57712;48.752;11.348;2023-09-18T07:30:57;11.55;;;7.63;;
70303;SDS011;57712;48.752;11.348;2023-09-18T07:33:23;11.55;;;8.57;;
70303;SDS011;57712;48.752;11.348;2023-09-18T07:35:50;12.18;;;8.27;;
70303;SDS011;57712;48.752;11.348;2023-09-18T07:38:20;10.85;;;8.02;;
70303;SDS011;57712;48.752;11.348;2023-09-18T07:40:47;11.63;;;7.80;;
70303;SDS011;57712;48.752;11.348;2023-09-18T07:43:13;11.25;;;8.18;;
70303;SDS011;57712;48.752;11.348;2023-09-18T07:45:40;12.50;;;8.38;;
70303;SDS011;57712;48.752;11.348;2023-09-18T07:48:07;13.70;;;7.38;;
70303;SDS011;57712;48.752;11.348;2023-09-18T07:50:34;12.82;;;8.10;;
70303;SDS011;57712;48.752;11.348;2023-09-18T07:53:02;11.73;;;7.63;;
70303;SDS011;57712;48.752;11.348;2023-09-18T07:55:29;10.93;;;7.70;;
70303;SDS011;57712;48.752;11.348;2023-09-18T07:57:56;10.80;;;7.28;;
70303;SDS011;57712;48.752;11.348;2023-09-18T08:00:23;9.95;;;7.13;;
70303;SDS011;57712;48.752;11.348;2023-09-18T08:02:54;10.05;;;7.30;;
70303;SDS011;57712;48.752;11.348;2023-09-18T08:05:27;9.40;;;7.00;;
70303;SDS011;57712;48.752;11.348;2023-09-18T08:07:54;11.80;;;7.55;;
70303;SDS011;57712;48.752;11.348;2023-09-18T08:10:25;10.45;;;7.47;;
70303;SDS011;57712;48.752;11.348;2023-09-18T08:12:52;12.30;;;6.97;;
70303;SDS011;57712;48.752;11.348;2023-09-18T08:15:19;9.95;;;7.07;;
70303;SDS011;57712;48.752;11.348;2023-09-18T08:17:47;10.13;;;6.77;;
70303;SDS011;57712;48.752;11.348;2023-09-18T08:20:16;10.05;;;6.47;;
70303;SDS011;57712;48.752;11.348;2023-09-18T08:22:43;9.48;;;6.07;;
70303;SDS011;57712;48.752;11.348;2023-09-18T08:25:10;10.80;;;6.85;;
70303;SDS011;57712;48.752;11.348;2023-09-18T08:27:38;10.98;;;6.63;;
70303;SDS011;57712;48.752;11.348;2023-09-18T08:30:11;9.13;;;6.17;;
70303;SDS011;57712;48.752;11.348;2023-09-18T08:32:39;11.10;;;6.32;;
70303;SDS011;57712;48.752;11.348;2023-09-18T08:35:08;9.23;;;6.60;;
70303;SDS011;57712;48.752;11.348;2023-09-18T08:37:35;9.95;;;6.05;;
70303;SDS011;57712;48.752;11.348;2023-09-18T08:40:01;8.45;;;5.90;;
70303;SDS011;57712;48.752;11.348;2023-09-18T08:42:40;9.17;;;5.77;;
70303;SDS011;57712;48.752;11.348;2023-09-18T08:48:19;8.25;;;5.78;;
70303;SDS011;57712;48.752;11.348;2023-09-18T08:50:47;9.50;;;5.75;;
70303;SDS011;57712;48.752;11.348;2023-09-18T08:53:15;7.93;;;5.63;;
70303;SDS011;57712;48.752;11.348;2023-09-18T08:55:41;10.30;;;5.70;;
70303;SDS011;57712;48.752;11.348;2023-09-18T08:58:08;11.57;;;5.45;;
70303;SDS011;57712;48.752;11.348;2023-09-18T09:00:38;8.05;;;5.38;;
70303;SDS011;57712;48.752;11.348;2023-09-18T09:03:05;9.90;;;5.38;;
70303;SDS011;57712;48.752;11.348;2023-09-18T09:05:32;8.23;;;5.30;;
70303;SDS011;57712;48.752;11.348;2023-09-18T09:07:59;8.23;;;4.40;;
70303;SDS011;57712;48.752;11.348;2023-09-18T09:10:27;9.00;;;4.50;;
70303;SDS011;57712;48.752;11.348;2023-09-18T09:12:54;9.20;;;5.10;;
70303;SDS011;57712;48.752;11.348;2023-09-18T09:15:24;8.90;;;5.15;;
70303;SDS011;57712;48.752;11.348;2023-09-18T09:18:06;8.88;;;5.05;;
70303;SDS011;57712;48.752;11.348;2023-09-18T09:20:35;9.93;;;4.90;;
70303;SDS011;57712;48.752;11.348;2023-09-18T09:23:04;9.07;;;4.78;;
70303;SDS011;57712;48.752;11.348;2023-09-18T09:25:33;9.25;;;5.57;;
70303;SDS011;57712;48.752;11.348;2023-09-18T09:28:02;11.32;;;5.72;;
70303;SDS011;57712;48.752;11.348;2023-09-18T09:30:32;9.00;;;5.65;;
70303;SDS011;57712;48.752;11.348;2023-09-18T09:33:02;8.97;;;5.20;;
70303;SDS011;57712;48.752;11.348;2023-09-18T09:35:32;8.98;;;4.82;;
70303;SDS011;57712;48.752;11.348;2023-09-18T09:38:01;7.75;;;5.63;;
70303;SDS011;57712;48.752;11.348;2023-09-18T09:40:41;11.23;;;5.28;;
70303;SDS011;57712;48.752;11.348;2023-09-18T09:43:10;10.73;;;6.18;;
70303;SDS011;57712;48.752;11.348;2023-09-18T09:45:40;12.53;;;4.83;;
70303;SDS011;57712;48.752;11.348;2023-09-18T09:48:07;13.95;;;5.00;;
70303;SDS011;57712;48.752;11.348;2023-09-18T09:50:43;13.27;;;5.22;;
70303;SDS011;57712;48.752;11.348;2023-09-18T09:53:15;14.85;;;5.50;;
70303;SDS011;57712;48.752;11.348;2023-09-18T09:55:42;11.25;;;4.93;;
70303;SDS011;57712;48.752;11.348;2023-09-18T09:58:10;8.97;;;4.33;;
70303;SDS011;57712;48.752;11.348;2023-09-18T10:00:45;9.30;;;4.13;;
70303;SDS011;57712;48.752;11.348;2023-09-18T10:03:17;8.00;;;4.20;;
70303;SDS011;57712;48.752;11.348;2023-09-18T10:05:50;9.60;;;3.50;;
70303;SDS011;57712;48.752;11.348;2023-09-18T10:08:24;9.20;;;3.15;;
70303;SDS011;57712;48.752;11.348;2023-09-18T10:10:54;10.50;;;2.33;;
70303;SDS011;57712;48.752;11.348;2023-09-18T10:14:09;7.10;;;3.13;;
70303;SDS011;57712;48.752;11.348;2023-09-18T10:16:13;6.03;;;3.03;;
70303;SDS011;57712;48.752;11.348;2023-09-18T10:19:10;8.10;;;2.90;;
70303;SDS011;57712;48.752;11.348;2023-09-18T10:22:01;8.65;;;3.05;;
70303;SDS011;57712;48.752;11.348;2023-09-18T10:24:54;9.00;;;2.60;;
70303;SDS011;57712;48.752;11.348;2023-09-18T10:27:26;8.95;;;3.10;;
70303;SDS011;57712;48.752;11.348;2023-09-18T10:29:54;8.20;;;3.20;;
70303;SDS011;57712;48.752;11.348;2023-09-18T10:32:22;8.10;;;3.10;;
70303;SDS011;57712;48.752;11.348;2023-09-18T10:34:52;8.57;;;2.70;;
70303;SDS011;57712;48.752;11.348;2023-09-18T10:37:20;7.63;;;2.77;;
70303;SDS011;57712;48.752;11.348;2023-09-18T10:39:48;10.65;;;2.75;;
70303;SDS011;57712;48.752;11.348;2023-09-18T10:42:17;8.88;;;2.95;;
70303;SDS011;57712;48.752;11.348;2023-09-18T10:44:45;7.50;;;2.40;;
70303;SDS011;57712;48.752;11.348;2023-09-18T10:47:12;8.73;;;2.72;;
70303;SDS011;57712;48.752;11.348;2023-09-18T10:49:41;10.40;;;2.80;;
70303;SDS011;57712;48.752;11.348;2023-09-18T10:52:11;7.18;;;2.78;;
70303;SDS011;57712;48.752;11.348;2023-09-18T10:54:39;10.13;;;2.88;;
70303;SDS011;57712;48.752;11.348;2023-09-18T10:57:06;9.10;;;2.90;;
70303;SDS011;57712;48.752;11.348;2023-09-18T10:59:33;7.78;;;2.88;;
70303;SDS011;57712;48.752;11.348;2023-09-18T11:02:03;8.50;;;2.90;;
70303;SDS011;57712;48.752;11.348;2023-09-18T11:04:32;9.00;;;2.42;;
70303;SDS011;57712;48.752;11.348;2023-09-18T11:09:26;7.40;;;2.75;;
70303;SDS011;57712;48.752;11.348;2023-09-18T11:20:21;8.30;;;2.75;;
70303;SDS011;57712;48.752;11.348;2023-09-18T11:22:47;7.75;;;2.00;;
70303;SDS011;57712;48.752;11.348;2023-09-18T11:25:28;8.93;;;2.85;;
70303;SDS011;57712;48.752;11.348;2023-09-18T11:28:05;9.07;;;2.27;;
70303;SDS011;57712;48.752;11.348;2023-09-18T11:30:36;6.80;;;2.30;;
70303;SDS011;57712;48.752;11.348;2023-09-18T11:33:06;10.27;;;2.58;;
70303;SDS011;57712;48.752;11.348;2023-09-18T11:35:33;9.55;;;2.22;;
70303;SDS011;57712;48.752;11.348;2023-09-18T11:38:03;7.95;;;2.45;;
70303;SDS011;57712;48.752;11.348;2023-09-18T11:40:32;7.57;;;1.80;;
70303;SDS011;57712;48.752;11.348;2023-09-18T11:43:21;8.15;;;2.08;;
70303;SDS011;57712;48.752;11.348;2023-09-18T11:45:58;6.68;;;2.30;;
70303;SDS011;57712;48.752;11.348;2023-09-18T11:48:27;7.28;;;2.30;;
70303;SDS011;57712;48.752;11.348;2023-09-18T11:50:56;9.20;;;2.63;;
70303;SDS011;57712;48.752;11.348;2023-09-18T11:53:27;8.50;;;2.20;;
70303;SDS011;57712;48.752;11.348;2023-09-18T11:55:54;9.45;;;2.00;;
70303;SDS011;57712;48.752;11.348;2023-09-18T11:58:22;7.57;;;2.20;;
70303;SDS011;57712;48.752;11.348;2023-09-18T12:00:50;10.18;;;2.15;;
70303;SDS011;57712;48.752;11.348;2023-09-18T12:03:19;10.75;;;2.35;;
70303;SDS011;57712;48.752;11.348;2023-09-18T12:05:55;8.00;;;1.90;;
70303;SDS011;57712;48.752;11.348;2023-09-18T12:08:23;7.97;;;2.13;;
70303;SDS011;57712;48.752;11.348;2023-09-18T12:10:54;6.90;;;1.80;;
70303;SDS011;57712;48.752;11.348;2023-09-18T12:13:21;8.63;;;1.77;;
70303;SDS011;57712;48.752;11.348;2023-09-18T12:15:48;6.43;;;1.70;;
70303;SDS011;57712;48.752;11.348;2023-09-18T12:18:15;5.63;;;1.83;;
70303;SDS011;57712;48.752;11.348;2023-09-18T12:20:47;6.55;;;1.50;;
70303;SDS011;57712;48.752;11.348;2023-09-18T12:23:15;7.63;;;1.95;;
70303;SDS011;57712;48.752;11.348;2023-09-18T12:25:46;8.55;;;1.55;;
70303;SDS011;57712;48.752;11.348;2023-09-18T12:28:16;8.80;;;2.13;;
70303;SDS011;57712;48.752;11.348;2023-09-18T12:30:43;7.47;;;1.80;;
70303;SDS011;57712;48.752;11.348;2023-09-18T12:33:16;8.57;;;1.58;;
70303;SDS011;57712;48.752;11.348;2023-09-18T12:35:43;7.00;;;1.20;;
70303;SDS011;57712;48.752;11.348;2023-09-18T12:38:13;6.65;;;1.92;;
70303;SDS011;57712;48.752;11.348;2023-09-18T12:40:42;5.15;;;1.13;;
70303;SDS011;57712;48.752;11.348;2023-09-18T12:43:10;6.37;;;1.17;;
70303;SDS011;57712;48.752;11.348;2023-09-18T12:45:37;6.13;;;1.00;;
70303;SDS011;57712;48.752;11.348;2023-09-18T12:48:05;6.90;;;1.45;;
70303;SDS011;57712;48.752;11.348;2023-09-18T12:50:33;6.28;;;1.17;;
70303;SDS011;57712;48.752;11.348;2023-09-18T12:53:08;6.82;;;1.50;;
70303;SDS011;57712;48.752;11.348;2023-09-18T12:55:35;7.67;;;1.13;;
70303;SDS011;57712;48.752;11.348;2023-09-18T12:58:03;5.55;;;0.80;;
70303;SDS011;57712;48.752;11.348;2023-09-18T13:00:35;5.95;;;1.50;;
70303;SDS011;57712;48.752;11.348;2023-09-18T13:03:02;5.32;;;1.15;;
70303;SDS011;57712;48.752;11.348;2023-09-18T13:05:31;4.68;;;1.05;;
70303;SDS011;57712;48.752;11.348;2023-09-18T13:08:02;6.10;;;0.93;;
70303;SDS011;57712;48.752;11.348;2023-09-18T13:10:46;6.40;;;0.95;;
70303;SDS011;57712;48.752;11.348;2023-09-18T13:13:22;4.35;;;1.10;;
70303;SDS011;57712;48.752;11.348;2023-09-18T13:15:49;5.03;;;0.73;;
70303;SDS011;57712;48.752;11.348;2023-09-18T13:18:21;6.25;;;1.38;;
70303;SDS011;57712;48.752;11.348;2023-09-18T13:20:50;6.93;;;0.83;;
70303;SDS011;57712;48.752;11.348;2023-09-18T13:23:20;5.00;;;1.13;;
70303;SDS011;57712;48.752;11.348;2023-09-18T13:25:58;8.18;;;1.45;;
70303;SDS011;57712;48.752;11.348;2023-09-18T13:28:25;5.75;;;1.40;;
70303;SDS011;57712;48.752;11.348;2023-09-18T13:30:53;7.13;;;1.35;;
70303;SDS011;57712;48.752;11.348;2023-09-18T13:33:20;4.77;;;0.73;;
70303;SDS011;57712;48.752;11.348;2023-09-18T13:35:47;4.45;;;0.90;;
70303;SDS011;57712;48.752;11.348;2023-09-18T13:38:13;5.25;;;1.10;;
70303;SDS011;57712;48.752;11.348;2023-09-18T13:40:41;6.45;;;1.30;;
70303;SDS011;57712;48.752;11.348;2023-09-18T13:43:08;5.00;;;1.05;;
70303;SDS011;57712;48.752;11.348;2023-09-18T13:45:36;6.57;;;1.23;;
70303;SDS011;57712;48.752;11.348;2023-09-18T13:48:03;6.05;;;1.48;;
70303;SDS011;57712;48.752;11.348;2023-09-18T13:50:31;6.18;;;1.45;;
70303;SDS011;57712;48.752;11.348;2023-09-18T13:52:58;6.72;;;1.35;;
70303;SDS011;57712;48.752;11.348;2023-09-18T13:55:29;7.50;;;1.10;;
70303;SDS011;57712;48.752;11.348;2023-09-18T13:57:56;5.63;;;0.90;;
70303;SDS011;57712;48.752;11.348;2023-09-18T14:00:23;6.20;;;1.20;;
70303;SDS011;57712;48.752;11.348;2023-09-18T14:02:49;5.65;;;1.23;;
70303;SDS011;57712;48.752;11.348;2023-09-18T14:05:17;6.53;;;1.02;;
70303;SDS011;57712;48.752;11.348;2023-09-18T14:07:44;6.93;;;1.08;;
70303;SDS011;57712;48.752;11.348;2023-09-18T14:10:14;5.03;;;1.10;;
70303;SDS011;57712;48.752;11.348;2023-09-18T14:12:43;5.85;;;1.30;;
70303;SDS011;57712;48.752;11.348;2023-09-18T14:15:10;5.85;;;1.30;;
70303;SDS011;57712;48.752;11.348;2023-09-18T14:17:37;6.22;;;1.10;;
70303;SDS011;57712;48.752;11.348;2023-09-18T14:20:05;4.35;;;1.00;;
70303;SDS011;57712;48.752;11.348;2023-09-18T14:22:36;6.27;;;1.30;;
70303;SDS011;57712;48.752;11.348;2023-09-18T14:25:03;4.70;;;1.10;;
70303;SDS011;57712;48.752;11.348;2023-09-18T14:27:34;4.65;;;1.33;;
70303;SDS011;57712;48.752;11.348;2023-09-18T14:30:05;6.93;;;1.38;;
70303;SDS011;57712;48.752;11.348;2023-09-18T14:32:34;7.00;;;1.27;;
70303;SDS011;57712;48.752;11.348;2023-09-18T14:35:04;6.43;;;1.23;;
70303;SDS011;57712;48.752;11.348;2023-09-18T14:37:35;4.20;;;1.00;;
70303;SDS011;57712;48.752;11.348;2023-09-18T14:40:03;6.47;;;1.35;;
70303;SDS011;57712;48.752;11.348;2023-09-18T14:42:30;5.70;;;0.90;;
70303;SDS011;57712;48.752;11.348;2023-09-18T14:44:56;4.47;;;1.13;;
70303;SDS011;57712;48.752;11.348;2023-09-18T14:47:23;5.90;;;0.90;;
70303;SDS011;57712;48.752;11.348;2023-09-18T14:49:50;4.63;;;1.25;;
70303;SDS011;57712;48.752;11.348;2023-09-18T14:52:18;6.20;;;1.42;;
70303;SDS011;57712;48.752;11.348;2023-09-18T14:54:45;5.90;;;1.17;;
70303;SDS011;57712;48.752;11.348;2023-09-18T14:57:12;5.93;;;1.40;;